Time;durP1;ratioP1;P1;durP2;ratioP2;P2;SDS_P1;SDS_P2;PMS_P1;PMS_P2;Temp;Humidity;BMP_temperature;BMP_pressure;BME280_temperature;BME280_humidity;BME280_pressure;Samples;Min_cycle;Max_cycle;Signal;HPM_P1;HPM_P2
2022/04/04 00:00:18;;;;;;;;;;;-1.20;99.90;;;;;;4996658;28;19952;-80
2022/04/04 00:02:44;;;;;;;;;;;-1.20;99.90;;;;;;5019866;28;19913;-80
2022/04/04 00:05:11;;;;;;;;;;;-1.20;99.90;;;;;;4997195;28;19917;-80
2022/04/04 00:07:37;;;;;;;;;;;-1.30;99.90;;;;;;5012893;28;19913;-80
2022/04/04 00:10:03;;;;;;;;;;;-1.30;99.90;;;;;;5013371;28;20005;-80
2022/04/04 00:12:29;;;;;;;;;;;-1.30;99.90;;;;;;4997027;28;20308;-80
2022/04/04 00:14:54;;;;;;;;;;;-1.30;99.90;;;;;;4997490;28;19922;-80
2022/04/04 00:17:20;;;;;;;;;;;-1.30;99.90;;;;;;5017021;28;20020;-80
2022/04/04 00:19:45;;;;;;;;;;;-1.30;99.90;;;;;;5000639;28;19925;-80
2022/04/04 00:22:11;;;;;;;;;;;-1.30;99.90;;;;;;5000691;28;19917;-80
2022/04/04 00:24:36;;;;;;;;;;;-1.30;99.90;;;;;;5017362;28;19964;-80
2022/04/04 00:27:02;;;;;;;;;;;-1.30;99.90;;;;;;4998830;28;19921;-79
2022/04/04 00:29:27;;;;;;;;;;;-1.30;99.90;;;;;;4999056;28;19925;-80
2022/04/04 00:31:53;;;;;;;;;;;-1.40;99.90;;;;;;5014917;28;19953;-80
2022/04/04 00:34:19;;;;;;;;;;;-1.40;99.90;;;;;;5015085;28;19920;-80
2022/04/04 00:36:45;;;;;;;;;;;-1.50;99.90;;;;;;5014485;28;19921;-79
2022/04/04 00:39:11;;;;;;;;;;;-1.50;99.90;;;;;;4998929;28;19944;-80
2022/04/04 00:41:37;;;;;;;;;;;-1.50;99.90;;;;;;5015353;28;20364;-80
2022/04/04 00:44:03;;;;;;;;;;;-1.60;99.90;;;;;;5014971;28;20327;-80
2022/04/04 00:46:29;;;;;;;;;;;-1.60;99.90;;;;;;5014785;28;20068;-80
2022/04/04 00:48:55;;;;;;;;;;;-1.70;99.90;;;;;;4997623;28;19925;-80
2022/04/04 00:51:21;;;;;;;;;;;-1.70;99.90;;;;;;4997948;28;20035;-80
2022/04/04 00:53:47;;;;;;;;;;;-1.70;99.90;;;;;;4997978;28;19944;-80
2022/04/04 00:56:12;;;;;;;;;;;-1.70;99.90;;;;;;4998779;28;19929;-80
2022/04/04 00:58:38;;;;;;;;;;;-1.70;99.90;;;;;;4997739;28;20012;-80
2022/04/04 01:01:04;;;;;;;;;;;-1.70;99.90;;;;;;5017174;28;19921;-80
2022/04/04 01:03:30;;;;;;;;;;;-1.70;99.90;;;;;;4998168;28;19972;-80
2022/04/04 01:05:59;;;;;;;;;;;-1.70;99.90;;;;;;4998240;28;20323;-80
2022/04/04 01:08:25;;;;;;;;;;;-1.70;99.90;;;;;;4998360;28;19924;-80
2022/04/04 01:10:51;;;;;;;;;;;-1.80;99.90;;;;;;5014279;28;19913;-80
2022/04/04 01:13:16;;;;;;;;;;;-1.80;99.90;;;;;;5014244;28;19979;-80
2022/04/04 01:15:42;;;;;;;;;;;-1.80;99.90;;;;;;4998416;28;19936;-80
2022/04/04 01:18:08;;;;;;;;;;;-1.80;99.90;;;;;;5015497;28;19963;-80
2022/04/04 01:20:34;;;;;;;;;;;-1.90;99.90;;;;;;5037810;22;19932;-87
2022/04/04 01:23:00;;;;;;;;;;;-1.90;99.90;;;;;;5023949;28;20106;-87
2022/04/04 01:25:29;;;;;;;;;;;-1.90;99.90;;;;;;5013702;28;19948;-85
2022/04/04 01:27:55;;;;;;;;;;;-1.90;99.90;;;;;;5020848;28;19953;-84
2022/04/04 01:30:25;;;;;;;;;;;-2.00;99.90;;;;;;5007261;28;19967;-85
2022/04/04 01:32:50;;;;;;;;;;;-2.00;99.90;;;;;;5014102;28;20363;-83
2022/04/04 01:35:17;;;;;;;;;;;-2.00;99.90;;;;;;5005180;28;19986;-88
2022/04/04 01:37:42;;;;;;;;;;;-2.10;99.90;;;;;;5000835;28;19933;-82
2022/04/04 01:40:10;;;;;;;;;;;-2.10;99.90;;;;;;5017782;28;19924;-85
2022/04/04 01:42:37;;;;;;;;;;;-2.10;99.90;;;;;;5007706;28;19917;-83
2022/04/04 01:45:06;;;;;;;;;;;-2.10;99.90;;;;;;5027607;28;19920;-85
2022/04/04 01:47:32;;;;;;;;;;;-2.10;99.90;;;;;;5015821;28;20012;-87
2022/04/04 01:49:57;;;;;;;;;;;-2.20;99.90;;;;;;5027023;28;20015;-87
2022/04/04 01:52:23;;;;;;;;;;;-2.10;99.90;;;;;;5021385;28;19917;-85
2022/04/04 01:54:48;;;;;;;;;;;-2.20;99.90;;;;;;5032495;28;19928;-86
2022/04/04 01:57:14;;;;;;;;;;;-2.20;99.90;;;;;;5021071;28;20437;-87
2022/04/04 01:59:40;;;;;;;;;;;-2.20;99.90;;;;;;5021576;28;19988;-86
2022/04/04 02:02:05;;;;;;;;;;;-2.20;99.90;;;;;;5024944;28;19920;-86
2022/04/04 02:04:31;;;;;;;;;;;-2.20;99.90;;;;;;5000320;28;20409;-86
2022/04/04 02:06:56;;;;;;;;;;;-2.20;99.90;;;;;;5006768;28;19917;-88
2022/04/04 02:09:22;;;;;;;;;;;-2.20;99.90;;;;;;5028273;28;19949;-87
2022/04/04 02:11:48;;;;;;;;;;;-2.20;99.90;;;;;;5016930;28;19918;-87
2022/04/04 02:14:13;;;;;;;;;;;-2.30;99.90;;;;;;5022589;28;20373;-85
2022/04/04 02:16:39;;;;;;;;;;;-2.30;99.90;;;;;;5016223;28;19931;-88
2022/04/04 02:19:04;;;;;;;;;;;-2.30;99.90;;;;;;5012865;28;19925;-86
2022/04/04 02:21:30;;;;;;;;;;;-2.30;99.90;;;;;;5012870;28;19933;-87
2022/04/04 02:23:55;;;;;;;;;;;-2.30;99.90;;;;;;5015471;28;19921;-86
2022/04/04 02:26:21;;;;;;;;;;;-2.30;99.90;;;;;;5007397;28;20016;-87
2022/04/04 02:28:46;;;;;;;;;;;-2.30;99.90;;;;;;5021404;28;19917;-87
2022/04/04 02:31:12;;;;;;;;;;;-2.30;99.90;;;;;;5033324;28;19929;-85
2022/04/04 02:33:37;;;;;;;;;;;-2.30;99.90;;;;;;5027235;28;19989;-84
2022/04/04 02:36:03;;;;;;;;;;;-2.20;99.90;;;;;;5026115;28;19921;-87
2022/04/04 02:38:29;;;;;;;;;;;-2.20;99.90;;;;;;5005619;28;19926;-87
2022/04/04 02:40:55;;;;;;;;;;;-2.20;99.90;;;;;;5025324;28;19917;-86
2022/04/04 02:43:21;;;;;;;;;;;-2.20;99.90;;;;;;5016259;28;19921;-87
2022/04/04 02:45:47;;;;;;;;;;;-2.20;99.90;;;;;;5027646;28;19920;-84
2022/04/04 02:48:15;;;;;;;;;;;-2.10;99.90;;;;;;5020631;28;19928;-85
2022/04/04 02:50:41;;;;;;;;;;;-2.10;99.90;;;;;;5025971;28;19944;-85
2022/04/04 02:53:06;;;;;;;;;;;-2.10;99.90;;;;;;5032003;28;20309;-84
2022/04/04 02:58:16;;;;;;;;;;;-2.10;99.90;;;;;;5022355;28;19931;-86
2022/04/04 03:00:42;;;;;;;;;;;-2.10;99.90;;;;;;5016167;28;19925;-87
2022/04/04 03:03:07;;;;;;;;;;;-2.10;99.90;;;;;;5024102;28;19949;-87
2022/04/04 03:05:34;;;;;;;;;;;-2.10;99.90;;;;;;5024780;28;19914;-87
2022/04/04 03:08:00;;;;;;;;;;;-2.10;99.90;;;;;;4997016;28;19934;-86
2022/04/04 03:10:25;;;;;;;;;;;-2.10;99.90;;;;;;5014779;28;19917;-87
2022/04/04 03:12:51;;;;;;;;;;;-2.10;99.90;;;;;;5020592;28;19913;-84
2022/04/04 03:15:21;;;;;;;;;;;-2.10;99.90;;;;;;5028084;28;19917;-85
2022/04/04 03:17:48;;;;;;;;;;;-2.10;99.90;;;;;;5015801;28;19929;-87
2022/04/04 03:20:14;;;;;;;;;;;-2.10;99.90;;;;;;4997471;28;20294;-85
2022/04/04 03:22:41;;;;;;;;;;;-2.10;99.90;;;;;;5014529;28;20000;-85
2022/04/04 03:25:08;;;;;;;;;;;-2.20;99.90;;;;;;5005798;28;20278;-87
2022/04/04 03:27:34;;;;;;;;;;;-2.20;99.90;;;;;;4999469;28;19918;-87
2022/04/04 03:29:59;;;;;;;;;;;-2.20;99.90;;;;;;5021493;28;19975;-87
2022/04/04 03:32:25;;;;;;;;;;;-2.30;99.90;;;;;;5026358;28;20351;-87
2022/04/04 03:34:50;;;;;;;;;;;-2.30;99.90;;;;;;5018907;28;19981;-87
2022/04/04 03:37:16;;;;;;;;;;;-2.30;99.90;;;;;;4999089;28;19928;-86
2022/04/04 03:39:42;;;;;;;;;;;-2.30;99.90;;;;;;5025270;28;20012;-86
2022/04/04 03:42:07;;;;;;;;;;;-2.30;99.90;;;;;;5021243;28;19920;-87
2022/04/04 03:44:33;;;;;;;;;;;-2.30;99.90;;;;;;5006212;28;20308;-86
2022/04/04 03:46:58;;;;;;;;;;;-2.40;99.90;;;;;;4999909;28;19926;-87
2022/04/04 03:49:24;;;;;;;;;;;-2.40;99.90;;;;;;5031499;28;19943;-85
2022/04/04 03:51:50;;;;;;;;;;;-2.40;99.90;;;;;;5021333;28;19964;-85
2022/04/04 03:54:16;;;;;;;;;;;-2.40;99.90;;;;;;5021353;28;19917;-85
2022/04/04 03:56:41;;;;;;;;;;;-2.40;99.90;;;;;;5025131;28;19917;-88
2022/04/04 03:59:06;;;;;;;;;;;-2.30;99.90;;;;;;5009398;28;19961;-86
2022/04/04 04:01:32;;;;;;;;;;;-2.30;99.90;;;;;;5034614;28;19935;-85
2022/04/04 04:03:57;;;;;;;;;;;-2.20;99.90;;;;;;5009754;28;19993;-87
2022/04/04 04:06:23;;;;;;;;;;;-2.20;99.90;;;;;;5022266;28;19976;-88
2022/04/04 04:08:48;;;;;;;;;;;-2.10;99.90;;;;;;5012217;28;19921;-87
2022/04/04 04:11:15;;;;;;;;;;;-2.10;99.90;;;;;;5003720;28;19944;-87
2022/04/04 04:13:41;;;;;;;;;;;-2.00;99.90;;;;;;5018836;28;20328;-86
2022/04/04 04:16:09;;;;;;;;;;;-2.00;99.90;;;;;;5026319;28;19956;-85
2022/04/04 04:18:38;;;;;;;;;;;-2.00;99.90;;;;;;5020472;28;19921;-84
2022/04/04 04:21:04;;;;;;;;;;;-2.00;99.90;;;;;;5015174;28;19929;-86
2022/04/04 04:23:30;;;;;;;;;;;-2.00;99.90;;;;;;5032315;28;20318;-85
2022/04/04 04:25:55;;;;;;;;;;;-2.00;99.90;;;;;;5016247;28;20432;-85
2022/04/04 04:28:21;;;;;;;;;;;-2.00;99.90;;;;;;5003859;28;19926;-85
2022/04/04 04:30:47;;;;;;;;;;;-2.00;99.90;;;;;;5014889;28;19922;-86
2022/04/04 04:33:12;;;;;;;;;;;-2.00;99.90;;;;;;5014872;28;19952;-87
2022/04/04 04:35:38;;;;;;;;;;;-2.00;99.90;;;;;;5004078;28;19917;-87
2022/04/04 04:38:04;;;;;;;;;;;-2.10;99.90;;;;;;5022786;28;20378;-85
2022/04/04 04:40:29;;;;;;;;;;;-2.10;99.90;;;;;;5020731;28;19918;-85
2022/04/04 04:42:55;;;;;;;;;;;-2.10;99.90;;;;;;5028504;28;19917;-87
2022/04/04 04:45:21;;;;;;;;;;;-2.10;99.90;;;;;;5026338;28;20193;-86
2022/04/04 04:47:47;;;;;;;;;;;-2.10;99.90;;;;;;5031644;28;20365;-85
2022/04/04 04:50:14;;;;;;;;;;;-2.10;99.90;;;;;;4998467;28;20327;-83
2022/04/04 04:52:39;;;;;;;;;;;-2.10;99.90;;;;;;5009224;28;20406;-85
2022/04/04 04:55:06;;;;;;;;;;;-2.10;99.90;;;;;;5020900;28;19924;-85
2022/04/04 04:57:31;;;;;;;;;;;-2.10;99.90;;;;;;5026230;28;19960;-83
2022/04/04 04:59:57;;;;;;;;;;;-2.10;99.90;;;;;;5031928;28;19971;-86
2022/04/04 05:02:23;;;;;;;;;;;-2.10;99.90;;;;;;4999435;28;20412;-82
2022/04/04 05:04:48;;;;;;;;;;;-2.10;99.90;;;;;;5018516;28;20337;-85
2022/04/04 05:07:14;;;;;;;;;;;-2.10;99.90;;;;;;5028097;28;19917;-84
2022/04/04 05:09:39;;;;;;;;;;;-2.10;99.90;;;;;;5030208;28;19987;-86
2022/04/04 05:12:06;;;;;;;;;;;-2.10;99.90;;;;;;5029435;28;20373;-85
2022/04/04 05:14:32;;;;;;;;;;;-2.00;99.90;;;;;;4998734;28;20019;-85
2022/04/04 05:16:57;;;;;;;;;;;-2.00;99.90;;;;;;5024809;28;19929;-83
2022/04/04 05:19:23;;;;;;;;;;;-1.90;99.90;;;;;;5017345;28;19920;-85
2022/04/04 05:21:49;;;;;;;;;;;-1.90;99.90;;;;;;4995082;28;20012;-84
2022/04/04 05:24:15;;;;;;;;;;;-1.80;99.90;;;;;;5018969;28;19945;-84
2022/04/04 05:26:40;;;;;;;;;;;-1.80;99.90;;;;;;5023040;28;19964;-83
2022/04/04 05:29:06;;;;;;;;;;;-1.80;99.90;;;;;;5017635;28;20359;-82
2022/04/04 05:31:31;;;;;;;;;;;-1.70;99.90;;;;;;5012599;28;19989;-85
2022/04/04 05:33:57;;;;;;;;;;;-1.80;99.90;;;;;;5020306;28;20012;-85
2022/04/04 05:36:27;;;;;;;;;;;-1.70;99.90;;;;;;5017164;28;20391;-86
2022/04/04 05:38:52;;;;;;;;;;;-1.70;99.90;;;;;;4996176;28;20404;-86
2022/04/04 05:41:18;;;;;;;;;;;-1.60;99.90;;;;;;5023422;28;20028;-85
2022/04/04 05:43:44;;;;;;;;;;;-1.50;99.90;;;;;;5020576;28;20338;-85
2022/04/04 05:46:13;;;;;;;;;;;-1.50;99.90;;;;;;5028091;28;19929;-85
2022/04/04 05:48:39;;;;;;;;;;;-1.50;99.90;;;;;;5005056;28;19957;-83
2022/04/04 05:51:05;;;;;;;;;;;-1.40;99.90;;;;;;5019238;28;20368;-85
2022/04/04 05:53:30;;;;;;;;;;;-1.30;99.90;;;;;;5026814;28;20569;-85
2022/04/04 05:55:56;;;;;;;;;;;-1.30;99.90;;;;;;5009015;28;20297;-87
2022/04/04 05:58:21;;;;;;;;;;;-1.30;99.90;;;;;;5020063;28;19928;-85
2022/04/04 06:00:47;;;;;;;;;;;-1.20;99.90;;;;;;4997702;28;20004;-84
2022/04/04 06:03:13;;;;;;;;;;;-1.20;99.90;;;;;;5028275;28;19979;-86
2022/04/04 06:05:38;;;;;;;;;;;-1.10;99.90;;;;;;4995773;28;19921;-86
2022/04/04 06:08:04;;;;;;;;;;;-1.10;99.90;;;;;;5002958;28;19995;-83
2022/04/04 06:10:29;;;;;;;;;;;-1.00;99.90;;;;;;5014976;28;19913;-85
2022/04/04 06:12:54;;;;;;;;;;;-0.90;99.90;;;;;;5014907;28;20553;-85
2022/04/04 06:15:20;;;;;;;;;;;-0.90;99.90;;;;;;5017331;28;19913;-85
2022/04/04 06:17:47;;;;;;;;;;;-0.80;99.90;;;;;;5024460;28;19921;-84
2022/04/04 06:20:12;;;;;;;;;;;-0.80;99.90;;;;;;4996860;28;20026;-85
2022/04/04 06:22:39;;;;;;;;;;;-0.70;99.90;;;;;;5021896;28;19913;-82
2022/04/04 06:25:08;;;;;;;;;;;-0.60;99.90;;;;;;5025489;28;19917;-85
2022/04/04 06:27:34;;;;;;;;;;;-0.60;99.90;;;;;;4994901;28;19921;-82
2022/04/04 06:30:00;;;;;;;;;;;-0.50;99.90;;;;;;5011505;28;19921;-82
2022/04/04 06:32:26;;;;;;;;;;;-0.40;99.90;;;;;;4994705;28;19914;-85
2022/04/04 06:34:52;;;;;;;;;;;-0.30;99.90;;;;;;5010975;28;19909;-85
2022/04/04 06:37:17;;;;;;;;;;;-0.20;99.90;;;;;;5011224;28;19925;-84
2022/04/04 06:39:43;;;;;;;;;;;-0.10;99.90;;;;;;4997525;28;19982;-84
2022/04/04 06:42:08;;;;;;;;;;;-0.10;99.90;;;;;;4999474;28;20010;-83
2022/04/04 06:44:34;;;;;;;;;;;0.00;99.90;;;;;;5014836;28;19916;-83
2022/04/04 06:46:59;;;;;;;;;;;0.10;99.90;;;;;;5015241;28;19914;-87
2022/04/04 06:49:25;;;;;;;;;;;0.30;99.90;;;;;;5014854;28;20421;-84
2022/04/04 06:51:51;;;;;;;;;;;0.40;99.90;;;;;;5015294;28;19914;-85
2022/04/04 06:54:18;;;;;;;;;;;0.50;99.90;;;;;;5017610;28;19921;-84
2022/04/04 06:56:49;;;;;;;;;;;0.60;99.90;;;;;;5016033;28;19963;-87
2022/04/04 06:59:16;;;;;;;;;;;0.70;99.90;;;;;;4998649;28;20012;-83
2022/04/04 07:01:42;;;;;;;;;;;0.80;99.90;;;;;;4999160;28;19917;-85
2022/04/04 07:04:09;;;;;;;;;;;0.80;99.90;;;;;;5016260;28;19977;-87
2022/04/04 07:06:35;;;;;;;;;;;0.90;99.90;;;;;;5016386;28;19935;-84
2022/04/04 07:09:01;;;;;;;;;;;1.00;99.90;;;;;;4999557;28;19952;-84
2022/04/04 07:11:27;;;;;;;;;;;1.10;99.90;;;;;;5020667;28;19913;-84
2022/04/04 07:13:53;;;;;;;;;;;1.10;99.80;;;;;;5017546;28;19925;-82
2022/04/04 07:16:18;;;;;;;;;;;1.20;99.60;;;;;;5034311;28;19912;-80
2022/04/04 07:18:44;;;;;;;;;;;1.20;98.90;;;;;;5020228;28;19921;-82
2022/04/04 07:21:09;;;;;;;;;;;1.30;98.60;;;;;;5029191;22;19934;-86
2022/04/04 07:23:35;;;;;;;;;;;1.30;98.50;;;;;;5012588;28;19926;-86
2022/04/04 07:26:01;;;;;;;;;;;1.40;98.30;;;;;;5006808;28;20408;-86
2022/04/04 07:28:26;;;;;;;;;;;1.40;98.20;;;;;;5028366;28;19973;-86
2022/04/04 07:30:53;;;;;;;;;;;1.50;98.10;;;;;;5022025;28;19913;-85
2022/04/04 07:33:19;;;;;;;;;;;1.60;98.00;;;;;;5018216;28;20011;-86
2022/04/04 07:35:45;;;;;;;;;;;1.60;97.70;;;;;;5027294;28;20012;-86
2022/04/04 07:38:10;;;;;;;;;;;1.70;97.30;;;;;;5015206;28;19925;-86
2022/04/04 07:40:36;;;;;;;;;;;1.80;97.00;;;;;;5006062;28;19980;-86
2022/04/04 07:43:02;;;;;;;;;;;1.90;96.30;;;;;;5003147;28;20293;-87
2022/04/04 07:45:31;;;;;;;;;;;2.00;95.70;;;;;;5020972;28;19914;-86
2022/04/04 07:48:00;;;;;;;;;;;2.10;94.90;;;;;;5001545;28;20411;-86
2022/04/04 07:50:25;;;;;;;;;;;2.20;94.80;;;;;;5017049;28;19917;-86
2022/04/04 07:52:52;;;;;;;;;;;2.30;93.80;;;;;;5007872;28;19997;-86
2022/04/04 07:55:17;;;;;;;;;;;2.40;92.80;;;;;;5005332;28;19965;-86
2022/04/04 07:57:43;;;;;;;;;;;2.40;91.50;;;;;;5021267;28;19968;-87
2022/04/04 08:00:11;;;;;;;;;;;2.50;91.60;;;;;;5022446;28;19913;-86
2022/04/04 08:02:37;;;;;;;;;;;2.60;91.30;;;;;;5022756;28;19967;-86
2022/04/04 08:05:04;;;;;;;;;;;2.60;90.30;;;;;;5015131;28;19993;-87
2022/04/04 08:07:30;;;;;;;;;;;2.70;88.90;;;;;;5025053;28;19940;-86
2022/04/04 08:09:55;;;;;;;;;;;2.90;88.60;;;;;;5010708;28;19961;-86
2022/04/04 08:12:24;;;;;;;;;;;3.00;85.90;;;;;;5011073;28;19913;-87
2022/04/04 08:14:50;;;;;;;;;;;3.10;82.30;;;;;;5011023;28;19909;-87
2022/04/04 08:17:15;;;;;;;;;;;3.20;79.20;;;;;;5016343;28;19925;-87
2022/04/04 08:19:41;;;;;;;;;;;3.20;76.70;;;;;;5003210;28;20374;-86
2022/04/04 08:22:06;;;;;;;;;;;3.30;75.60;;;;;;5018390;28;19928;-86
2022/04/04 08:24:32;;;;;;;;;;;3.40;74.20;;;;;;5013743;28;19914;-86
2022/04/04 08:26:57;;;;;;;;;;;3.50;72.00;;;;;;5002035;28;20391;-85
2022/04/04 08:29:23;;;;;;;;;;;3.50;70.20;;;;;;5021395;28;19991;-86
2022/04/04 08:31:49;;;;;;;;;;;3.60;69.10;;;;;;5029512;28;20305;-87
2022/04/04 08:34:15;;;;;;;;;;;3.70;69.70;;;;;;5006917;28;19922;-87
2022/04/04 08:36:41;;;;;;;;;;;3.80;68.20;;;;;;5014266;28;19921;-87
2022/04/04 08:39:07;;;;;;;;;;;3.90;67.20;;;;;;5016457;28;20419;-87
2022/04/04 08:41:32;;;;;;;;;;;4.00;66.90;;;;;;5032997;28;19913;-85
2022/04/04 08:44:02;;;;;;;;;;;4.00;65.10;;;;;;5021869;28;19913;-86
2022/04/04 08:46:28;;;;;;;;;;;4.10;65.80;;;;;;5022267;28;19914;-88
2022/04/04 08:48:57;;;;;;;;;;;4.10;63.30;;;;;;5031631;28;19909;-86
2022/04/04 08:51:23;;;;;;;;;;;4.20;63.50;;;;;;5016719;28;19921;-86
2022/04/04 08:53:49;;;;;;;;;;;4.30;64.60;;;;;;5012985;28;20642;-87
2022/04/04 08:56:15;;;;;;;;;;;4.30;63.30;;;;;;5006708;28;19928;-87
2022/04/04 08:58:40;;;;;;;;;;;4.40;61.90;;;;;;5016276;28;19917;-86
2022/04/04 09:01:06;;;;;;;;;;;4.40;61.90;;;;;;5020444;28;19920;-86
2022/04/04 09:03:32;;;;;;;;;;;4.50;60.20;;;;;;5032531;28;19909;-87
2022/04/04 09:06:03;;;;;;;;;;;4.50;60.50;;;;;;5021533;28;20469;-87
2022/04/04 09:08:29;;;;;;;;;;;4.60;60.90;;;;;;5019421;28;19949;-87
2022/04/04 09:10:56;;;;;;;;;;;4.70;59.60;;;;;;5026822;28;19983;-87
2022/04/04 09:13:23;;;;;;;;;;;4.80;60.50;;;;;;5009414;28;19948;-87
2022/04/04 09:15:51;;;;;;;;;;;4.80;59.50;;;;;;5010582;28;20157;-87
2022/04/04 09:18:18;;;;;;;;;;;4.90;59.40;;;;;;5012311;28;19960;-87
2022/04/04 09:20:47;;;;;;;;;;;4.90;59.30;;;;;;5005372;28;19921;-88
2022/04/04 09:23:12;;;;;;;;;;;5.00;59.50;;;;;;5019060;28;19921;-87
2022/04/04 09:25:37;;;;;;;;;;;5.00;59.10;;;;;;5013623;28;19914;-88
2022/04/04 09:28:17;;;;;;;;;;;5.00;58.80;;;;;;5014551;28;19917;-88
2022/04/04 09:30:43;;;;;;;;;;;5.00;59.00;;;;;;5018961;28;19925;-87
2022/04/04 09:33:33;;;;;;;;;;;5.00;58.70;;;;;;5022837;28;19913;-87
2022/04/04 09:35:58;;;;;;;;;;;5.10;58.40;;;;;;5018119;28;19913;-87
2022/04/04 09:38:24;;;;;;;;;;;5.20;58.70;;;;;;5002235;28;19926;-87
2022/04/04 09:40:50;;;;;;;;;;;5.30;58.90;;;;;;4999974;28;19917;-87
2022/04/04 09:43:16;;;;;;;;;;;5.40;57.50;;;;;;5025471;28;19925;-87
2022/04/04 09:45:43;;;;;;;;;;;5.50;58.40;;;;;;5002821;28;19921;-87
2022/04/04 09:48:09;;;;;;;;;;;5.60;57.40;;;;;;5004458;28;19917;-88
2022/04/04 09:50:43;;;;;;;;;;;5.60;56.60;;;;;;5018855;28;19917;-87
2022/04/04 09:53:08;;;;;;;;;;;5.60;55.60;;;;;;5018890;28;19917;-88
2022/04/04 09:55:37;;;;;;;;;;;5.60;55.50;;;;;;5025081;28;19920;-87
2022/04/04 09:58:05;;;;;;;;;;;5.60;54.90;;;;;;5021234;28;19964;-87
2022/04/04 10:00:31;;;;;;;;;;;5.70;54.50;;;;;;5023496;28;19913;-87
2022/04/04 10:02:57;;;;;;;;;;;5.80;54.40;;;;;;5018727;28;20415;-87
2022/04/04 10:05:26;;;;;;;;;;;5.90;54.90;;;;;;5011620;28;19924;-87
2022/04/04 10:07:56;;;;;;;;;;;6.10;54.90;;;;;;5026742;28;19913;-87
2022/04/04 10:10:26;;;;;;;;;;;6.20;54.00;;;;;;4991939;28;19944;-87
2022/04/04 10:12:51;;;;;;;;;;;6.30;53.50;;;;;;5014456;28;20883;-88
2022/04/04 10:15:17;;;;;;;;;;;6.30;53.00;;;;;;5028367;28;19913;-87
2022/04/04 10:17:44;;;;;;;;;;;6.40;52.90;;;;;;5030224;28;19919;-87
2022/04/04 10:20:10;;;;;;;;;;;6.60;52.80;;;;;;5029528;28;19913;-88
2022/04/04 10:22:35;;;;;;;;;;;6.90;53.50;;;;;;5030187;28;20096;-88
2022/04/04 10:25:02;;;;;;;;;;;7.00;52.70;;;;;;5013600;28;20508;-87
2022/04/04 10:27:28;;;;;;;;;;;7.10;52.10;;;;;;5013995;28;19917;-88
2022/04/04 10:30:07;;;;;;;;;;;7.10;52.30;;;;;;5012972;28;20170;-88
2022/04/04 10:32:34;;;;;;;;;;;7.10;51.50;;;;;;5029702;28;19919;-87
2022/04/04 10:35:09;;;;;;;;;;;7.20;51.60;;;;;;5029948;28;19948;-87
2022/04/04 10:37:45;;;;;;;;;;;7.30;51.10;;;;;;5013547;28;20297;-87
2022/04/04 10:40:19;;;;;;;;;;;7.30;51.40;;;;;;5029623;28;19913;-88
2022/04/04 10:42:46;;;;;;;;;;;7.40;50.80;;;;;;5029921;28;20296;-86
2022/04/04 10:45:13;;;;;;;;;;;7.30;50.80;;;;;;5030056;28;20349;-87
2022/04/04 10:47:40;;;;;;;;;;;7.30;50.90;;;;;;5029782;28;19924;-88
2022/04/04 10:50:18;;;;;;;;;;;7.50;51.30;;;;;;5029028;28;19924;-87
2022/04/04 10:52:43;;;;;;;;;;;7.80;51.10;;;;;;5029604;28;19909;-87
2022/04/04 10:55:28;;;;;;;;;;;8.10;50.90;;;;;;5013146;28;19914;-87
2022/04/04 10:57:58;;;;;;;;;;;8.60;51.70;;;;;;5029089;28;19917;-88
2022/04/04 11:00:34;;;;;;;;;;;8.90;49.80;;;;;;5012445;28;20016;-88
2022/04/04 11:03:01;;;;;;;;;;;8.80;48.00;;;;;;5029575;28;19958;-87
2022/04/04 11:08:12;;;;;;;;;;;8.90;47.90;;;;;;5029803;28;19963;-87
2022/04/04 11:10:41;;;;;;;;;;;8.90;48.20;;;;;;5029314;28;19910;-87
2022/04/04 11:13:08;;;;;;;;;;;8.90;48.30;;;;;;5013195;28;19913;-88
2022/04/04 11:15:41;;;;;;;;;;;8.70;46.50;;;;;;5030611;28;20309;-87
2022/04/04 11:18:08;;;;;;;;;;;8.50;46.90;;;;;;5022920;28;20589;-87
2022/04/04 11:20:36;;;;;;;;;;;8.30;46.80;;;;;;5024246;28;20512;-87
2022/04/04 11:23:11;;;;;;;;;;;8.30;47.10;;;;;;5004340;28;19921;-88
2022/04/04 11:25:48;;;;;;;;;;;8.30;47.00;;;;;;4995485;28;19928;-88
2022/04/04 11:28:15;;;;;;;;;;;8.30;47.00;;;;;;5019142;28;20326;-87
2022/04/04 11:30:41;;;;;;;;;;;8.40;47.60;;;;;;4998215;28;19926;-89
2022/04/04 11:33:11;;;;;;;;;;;8.30;47.50;;;;;;5024400;28;20297;-88
2022/04/04 11:35:36;;;;;;;;;;;8.20;47.30;;;;;;5014328;28;20273;-88
2022/04/04 11:38:11;;;;;;;;;;;8.50;48.20;;;;;;5013763;28;20037;-89
2022/04/04 11:40:44;;;;;;;;;;;8.70;47.50;;;;;;5004786;28;19965;-89
2022/04/04 11:43:11;;;;;;;;;;;8.90;46.20;;;;;;5002887;28;19918;-88
2022/04/04 11:45:39;;;;;;;;;;;8.90;45.50;;;;;;5014618;28;19913;-88
2022/04/04 11:48:06;;;;;;;;;;;9.00;45.80;;;;;;5023887;28;20300;-87
2022/04/04 11:50:35;;;;;;;;;;;8.90;45.80;;;;;;5023855;28;20244;-88
2022/04/04 11:53:08;;;;;;;;;;;9.10;45.80;;;;;;5017978;28;20411;-87
2022/04/04 11:55:36;;;;;;;;;;;9.20;45.50;;;;;;5026075;28;19960;-88
2022/04/04 11:58:10;;;;;;;;;;;9.30;44.80;;;;;;4999224;28;19925;-88
2022/04/04 12:00:37;;;;;;;;;;;9.40;44.20;;;;;;5022190;28;20389;-88
2022/04/04 12:03:13;;;;;;;;;;;9.50;44.00;;;;;;5029173;28;19941;-88
2022/04/04 12:05:49;;;;;;;;;;;9.60;43.80;;;;;;5027576;28;20349;-86
2022/04/04 12:08:15;;;;;;;;;;;9.70;43.40;;;;;;5016814;28;20061;-85
2022/04/04 12:10:42;;;;;;;;;;;9.80;43.90;;;;;;5027156;28;19917;-85
2022/04/04 12:13:09;;;;;;;;;;;9.90;43.70;;;;;;4998963;28;19922;-85
2022/04/04 12:15:36;;;;;;;;;;;10.30;44.00;;;;;;5012302;28;19924;-86
2022/04/04 12:18:03;;;;;;;;;;;10.60;43.80;;;;;;5024008;28;20409;-85
2022/04/04 12:20:35;;;;;;;;;;;11.00;43.00;;;;;;5011603;28;19922;-86
2022/04/04 12:25:45;;;;;;;;;;;11.00;40.80;;;;;;5024383;28;19924;-87
2022/04/04 12:28:20;;;;;;;;;;;10.80;41.50;;;;;;4997325;28;20012;-86
2022/04/04 12:30:46;;;;;;;;;;;10.70;42.10;;;;;;5019292;28;19971;-85
2022/04/04 12:33:13;;;;;;;;;;;10.60;41.20;;;;;;5021884;28;19913;-85
2022/04/04 12:35:40;;;;;;;;;;;10.40;41.80;;;;;;5022700;28;19921;-86
2022/04/04 12:38:06;;;;;;;;;;;10.40;42.20;;;;;;5021306;28;19921;-85
2022/04/04 12:40:32;;;;;;;;;;;10.30;42.40;;;;;;5004116;28;20293;-86
2022/04/04 12:43:05;;;;;;;;;;;10.20;41.20;;;;;;5020161;28;19920;-86
2022/04/04 12:45:31;;;;;;;;;;;10.20;42.10;;;;;;5024803;28;19970;-86
2022/04/04 12:48:04;;;;;;;;;;;10.00;41.90;;;;;;5007008;28;20445;-85
2022/04/04 12:50:41;;;;;;;;;;;10.00;42.70;;;;;;5022490;28;19921;-85
2022/04/04 12:53:07;;;;;;;;;;;9.90;42.60;;;;;;5021773;28;19917;-84
2022/04/04 12:55:34;;;;;;;;;;;9.90;43.50;;;;;;5023730;28;19913;-86
2022/04/04 12:58:18;;;;;;;;;;;9.90;43.50;;;;;;5007502;28;20392;-85
2022/04/04 13:00:44;;;;;;;;;;;9.90;44.00;;;;;;5015926;28;19920;-85
2022/04/04 13:03:23;;;;;;;;;;;9.90;44.40;;;;;;5027145;28;20196;-85
2022/04/04 13:05:50;;;;;;;;;;;9.90;44.30;;;;;;5013800;28;19922;-85
2022/04/04 13:08:16;;;;;;;;;;;9.90;43.90;;;;;;5024629;28;19917;-86
2022/04/04 13:10:42;;;;;;;;;;;9.90;43.70;;;;;;5023878;28;19914;-85
2022/04/04 13:13:08;;;;;;;;;;;9.80;43.80;;;;;;5015066;28;19968;-85
2022/04/04 13:15:35;;;;;;;;;;;9.80;44.10;;;;;;5026855;28;20007;-85
2022/04/04 13:18:01;;;;;;;;;;;9.90;44.70;;;;;;5016962;28;19925;-85
2022/04/04 13:20:27;;;;;;;;;;;9.90;44.50;;;;;;5031189;28;20373;-85
2022/04/04 13:22:52;;;;;;;;;;;10.00;43.90;;;;;;5048614;22;21103;-83
2022/04/04 13:25:17;;;;;;;;;;;10.10;43.90;;;;;;5077601;28;19920;-85
2022/04/04 13:27:43;;;;;;;;;;;10.30;43.70;;;;;;5075909;28;19916;-84
2022/04/04 13:30:10;;;;;;;;;;;10.30;43.00;;;;;;5057275;28;19921;-85
2022/04/04 13:32:35;;;;;;;;;;;10.30;42.90;;;;;;5077281;28;19982;-84
2022/04/04 13:35:01;;;;;;;;;;;10.30;42.20;;;;;;5065929;28;19912;-85
2022/04/04 13:37:26;;;;;;;;;;;10.30;42.40;;;;;;5064099;28;19921;-85
2022/04/04 13:39:53;;;;;;;;;;;10.30;42.50;;;;;;5072423;28;19917;-84
2022/04/04 13:42:19;;;;;;;;;;;10.20;41.80;;;;;;5047615;28;20653;-85
2022/04/04 13:44:44;;;;;;;;;;;10.10;42.20;;;;;;5043350;28;20398;-85
2022/04/04 13:47:10;;;;;;;;;;;10.00;42.60;;;;;;5048244;28;19942;-85
2022/04/04 13:49:36;;;;;;;;;;;9.90;42.60;;;;;;5069031;28;19919;-85
2022/04/04 13:52:02;;;;;;;;;;;10.00;43.80;;;;;;5058857;28;19960;-84
2022/04/04 13:54:27;;;;;;;;;;;10.00;42.90;;;;;;5072642;28;20475;-85
2022/04/04 13:56:53;;;;;;;;;;;10.10;42.70;;;;;;5062749;28;19928;-85
2022/04/04 13:59:18;;;;;;;;;;;10.00;42.40;;;;;;5066743;28;19917;-85
2022/04/04 14:01:44;;;;;;;;;;;10.00;41.70;;;;;;5070922;28;19986;-84
2022/04/04 14:04:09;;;;;;;;;;;10.10;42.20;;;;;;5055882;28;19936;-85
2022/04/04 14:06:35;;;;;;;;;;;10.20;41.50;;;;;;5073622;28;19923;-86
2022/04/04 14:09:00;;;;;;;;;;;10.30;42.00;;;;;;5063462;28;19924;-85
2022/04/04 14:11:29;;;;;;;;;;;10.20;41.40;;;;;;5056997;28;19928;-83
2022/04/04 14:13:55;;;;;;;;;;;10.10;40.90;;;;;;5069670;28;20305;-85
2022/04/04 14:16:22;;;;;;;;;;;10.00;41.70;;;;;;5064269;28;19924;-86
2022/04/04 14:18:48;;;;;;;;;;;10.00;42.60;;;;;;5070691;28;20001;-86
2022/04/04 14:21:14;;;;;;;;;;;10.10;42.50;;;;;;5060696;28;19913;-85
2022/04/04 14:23:41;;;;;;;;;;;10.20;42.80;;;;;;5065437;28;19916;-86
2022/04/04 14:26:06;;;;;;;;;;;10.20;42.70;;;;;;5063529;28;19970;-85
2022/04/04 14:28:33;;;;;;;;;;;10.20;42.60;;;;;;5074593;28;20383;-86